Flight Track Log - Related Links

Times and Time Zones

All times are in EDT time to prevent confusion due to time zone crossing. See the N589H flight status page for this flight to view local times or setup timezone preferences in your user account.

Time Position Orientation Groundspeed Altitude Reporting Facility
EDT Latitude Longitude Course Direction KTS MPH feet Rate Location/Type
Tue 08:04:56 PM 42.3833 -71.0000 294° West 140 161 400  Level KA90
Tue 08:06:03 PM 42.4000 -71.0500 294° West 186 214 2,500 1,512 Climbing KA90
Tue 08:07:03 PM 42.3833 -71.1333 255° West 218 251 3,600 1,642 Climbing KA90
Tue 08:09:13 PM 42.3719 -71.3103 265° West 212 244 7,700 1,952 Climbing Boston Center
Tue 08:11:15 PM 42.3639 -71.4578 266° West 195 224 11,800 2,000 Climbing Boston Center
Tue 08:12:16 PM 42.3600 -71.5439 267° West 210 242 13,800 1,869 Climbing Boston Center
Tue 08:13:17 PM 42.3289 -71.6158 240° Southwest 244 281 15,600 1,820 Climbing Boston Center
Tue 08:14:18 PM 42.2786 -71.6775 222° Southwest 245 282 17,500 1,623 Climbing Boston Center
Tue 08:15:19 PM 42.2275 -71.7358 220° Southwest 242 278 18,900 1,475 Climbing Boston Center
Tue 08:16:20 PM 42.1850 -71.7858 221° Southwest 241 277 20,500 1,721 Climbing Boston Center
Tue 08:17:21 PM 42.1228 -71.8569 220° Southwest 246 283 22,400 1,672 Climbing Boston Center
Tue 08:18:22 PM 42.0675 -71.9183 220° Southwest 256 295 23,900 1,525 Climbing Boston Center
Tue 08:19:23 PM 42.0119 -71.9819 220° Southwest 260 299 25,500 1,525 Climbing Boston Center
Tue 08:20:24 PM 41.9547 -72.0447 219° Southwest 265 305 27,000 1,475 Climbing Boston Center
Tue 08:21:25 PM 41.8989 -72.1064 219° Southwest 260 299 28,500 1,512 Climbing Boston Center
Tue 08:22:27 PM 41.8442 -72.1683 220° Southwest 257 296 30,100 1,512 Climbing Boston Center
Tue 08:23:28 PM 41.7931 -72.2253 220° Southwest 242 278 31,600 1,377 Climbing Boston Center
Tue 08:24:29 PM 41.7450 -72.2800 220° Southwest 229 264 32,900 934 Climbing Boston Center
Tue 08:25:30 PM 41.6967 -72.3358 221° Southwest 229 264 33,500 443 Climbing Boston Center
Tue 08:26:31 PM 41.6436 -72.3925 219° Southwest 241 277 33,800 246 Climbing Boston Center
Tue 08:27:32 PM 41.5878 -72.4536 219° Southwest 257 296 34,000 148 Climbing Boston Center
Tue 08:28:33 PM 41.5225 -72.5233 219° Southwest 269 310 34,100 197 Climbing Boston Center
Tue 08:29:34 PM 41.4619 -72.5889 219° Southwest 279 321 34,400 295 Climbing Boston Center
Tue 08:30:35 PM 41.4019 -72.6558 220° Southwest 282 325 34,700 295 Climbing Boston Center
Tue 08:31:36 PM 41.3406 -72.7228 219° Southwest 285 328 35,000 344 Climbing Boston Center
Tue 08:32:37 PM 41.2800 -72.7883 219° Southwest 284 327 35,400 344 Climbing Boston Center
Tue 08:33:38 PM 41.2131 -72.8603 219° Southwest 280 322 35,700 295 Climbing Boston Center
Tue 08:34:39 PM 41.1533 -72.9264 220° Southwest 280 322 36,000 148 Climbing Boston Center
Tue 08:35:40 PM 41.0922 -72.9911 219° Southwest 282 325 36,000  Level Boston Center
Tue 08:36:42 PM 41.0303 -73.0581 219° Southwest 286 329 36,000  Level Boston Center
Tue 08:37:43 PM 40.9672 -73.1267 219° Southwest 292 336 36,000  Level Boston Center
Tue 08:38:44 PM 40.9039 -73.1947 219° Southwest 293 337 36,000  Level Boston Center
Tue 08:39:45 PM 40.8411 -73.2619 219° Southwest 292 336 36,000  Level Boston Center
Tue 08:40:46 PM 40.7772 -73.3292 219° Southwest 287 330 36,000  Level Boston Center
Tue 08:41:38 PM 40.7158 -73.3994 221° Southwest 290 334 36,000  Level New York Center
Tue 08:42:38 PM 40.6561 -73.4656 220° Southwest 290 334 36,000  Level New York Center
Tue 08:43:38 PM 40.5961 -73.5289 219° Southwest 290 334 36,000  Level New York Center
Tue 08:44:38 PM 40.5364 -73.5892 217° Southwest 285 328 36,000  Level New York Center
Tue 08:45:38 PM 40.4744 -73.6522 218° Southwest 285 328 36,000  Level New York Center
Tue 08:47:45 PM 40.3558 -73.7731 218° Southwest 274 315 36,000  Level Washington Center
Tue 08:48:44 PM 40.2964 -73.8372 219° Southwest 274 315 36,000  Level Washington Center
Tue 08:49:56 PM 40.2286 -73.9103 219° Southwest 274 315 36,000  Level Boston Center
Tue 08:50:57 PM 40.1647 -73.9758 218° Southwest 278 320 36,000  Level Boston Center
Tue 08:51:58 PM 40.1058 -74.0378 219° Southwest 274 315 36,000  Level Boston Center
Tue 08:53:00 PM 40.0450 -74.1008 218° Southwest 277 319 36,000  Level Boston Center
Tue 08:53:46 PM 39.9925 -74.1561 219° Southwest 279 321 36,000  Level Washington Center
Tue 08:54:46 PM 39.9328 -74.2169 218° Southwest 279 321 36,000  Level Washington Center
Tue 08:55:44 PM 39.8731 -74.2803 219° Southwest 279 321 36,000  Level Washington Center
Tue 08:56:45 PM 39.8133 -74.3408 218° Southwest 279 321 36,000  Level Washington Center
Tue 08:57:46 PM 39.7533 -74.4014 218° Southwest 279 321 36,000  Level Washington Center
Tue 08:58:44 PM 39.6936 -74.4644 219° Southwest 279 321 36,000  Level Washington Center
Tue 08:59:44 PM 39.6317 -74.5244 217° Southwest 279 321 36,000  Level Washington Center
Tue 09:00:45 PM 39.5739 -74.5875 220° Southwest 279 321 36,000  Level Washington Center
Tue 09:01:46 PM 39.5139 -74.6500 219° Southwest 279 321 36,000  Level Washington Center
Tue 09:02:46 PM 39.4519 -74.7100 217° Southwest 279 321 36,000  Level Washington Center
Tue 09:03:44 PM 39.3919 -74.7725 219° Southwest 279 321 36,000  Level Washington Center
Tue 09:04:44 PM 39.3319 -74.8350 219° Southwest 279 321 36,000  Level Washington Center
Tue 09:05:45 PM 39.2697 -74.8944 216° Southwest 279 321 36,000  Level Washington Center
Tue 09:06:45 PM 39.2097 -74.9567 219° Southwest 279 321 36,000  Level Washington Center
Tue 09:07:44 PM 39.1475 -75.0161 217° Southwest 279 321 36,000  Level Washington Center
Tue 09:08:44 PM 39.0853 -75.0783 218° Southwest 279 321 36,000  Level Washington Center
Tue 09:09:46 PM 39.0250 -75.1428 220° Southwest 279 321 36,000  Level Washington Center
Tue 09:10:46 PM 38.9628 -75.2019 216° Southwest 279 321 36,000  Level Washington Center
Tue 09:11:44 PM 38.8983 -75.2689 219° Southwest 284 327 36,000  Level Washington Center
Tue 09:12:44 PM 38.8378 -75.3250 216° Southwest 284 327 36,000  Level Washington Center
Tue 09:13:45 PM 38.7733 -75.3892 218° Southwest 289 333 36,000  Level Washington Center
Tue 09:14:46 PM 38.7131 -75.4506 218° Southwest 289 333 36,000  Level Washington Center
Tue 09:15:44 PM 38.6506 -75.5144 219° Southwest 289 333 36,000  Level Washington Center
Tue 09:16:45 PM 38.5861 -75.5731 215° Southwest 294 338 36,000  Level Washington Center
Tue 09:17:45 PM 38.5233 -75.6369 219° Southwest 294 338 36,000  Level Washington Center
Tue 09:18:45 PM 38.4608 -75.6950 216° Southwest 294 338 36,000  Level Washington Center
Tue 09:19:46 PM 38.3961 -75.7533 215° Southwest 294 338 36,000  Level Washington Center
Tue 09:20:44 PM 38.3356 -75.8219 222° Southwest 294 338 36,000  Level Washington Center
Tue 09:21:45 PM 38.2708 -75.8772 214° Southwest 294 338 36,000  Level Washington Center
Tue 09:22:46 PM 38.2081 -75.9378 217° Southwest 294 338 36,000  Level Washington Center
Tue 09:23:44 PM 38.1475 -75.9983 218° Southwest 294 338 36,000  Level Washington Center
Tue 09:24:44 PM 38.0825 -76.0586 216° Southwest 294 338 36,000  Level Washington Center
Tue 09:25:44 PM 38.0197 -76.1217 218° Southwest 294 338 36,000  Level Washington Center
Tue 09:26:45 PM 37.9547 -76.1817 216° Southwest 294 338 36,000  Level Washington Center
Tue 09:27:45 PM 37.8919 -76.2444 218° Southwest 294 338 36,000  Level Washington Center
Tue 09:28:46 PM 37.8292 -76.3042 217° Southwest 294 338 36,000  Level Washington Center
Tue 09:29:44 PM 37.7642 -76.3642 216° Southwest 294 338 36,000  Level Washington Center
Tue 09:30:45 PM 37.6989 -76.4264 217° Southwest 294 338 36,000  Level Washington Center
Tue 09:31:46 PM 37.6358 -76.4861 217° Southwest 294 338 36,000  Level Washington Center
Tue 09:32:44 PM 37.5728 -76.5481 218° Southwest 294 338 36,000  Level Washington Center
Tue 09:33:44 PM 37.5078 -76.6050 215° Southwest 294 338 36,000  Level Washington Center
Tue 09:34:46 PM 37.4447 -76.6669 218° Southwest 294 338 36,000  Level Washington Center
Tue 09:35:44 PM 37.3817 -76.7261 217° Southwest 294 338 36,000  Level Washington Center
Tue 09:36:44 PM 37.3164 -76.7853 216° Southwest 294 338 36,000  Level Washington Center
Tue 09:37:44 PM 37.2594 -76.8469 221° Southwest 301 346 36,000  Level Washington Center
Tue 09:38:46 PM 37.1900 -76.9058 214° Southwest 296 341 36,000  Level Washington Center
Tue 09:39:44 PM 37.1289 -76.9647 218° Southwest 291 335 36,000  Level Washington Center
Tue 09:40:46 PM 37.0656 -77.0233 216° Southwest 291 335 36,000  Level Washington Center
Tue 09:41:44 PM 37.0042 -77.0794 216° Southwest 291 335 36,000  Level Washington Center
Tue 09:42:44 PM 36.9431 -77.1381 217° Southwest 291 335 36,000  Level Washington Center
Tue 09:43:45 PM 36.8817 -77.1967 217° Southwest 286 329 36,000  Level Washington Center
Tue 09:44:46 PM 36.8206 -77.2525 216° Southwest 286 329 36,000  Level Washington Center
Tue 09:45:44 PM 36.7592 -77.3081 216° Southwest 286 329 36,000  Level Washington Center
Tue 09:46:45 PM 36.6981 -77.3639 216° Southwest 286 329 36,000  Level Washington Center
Tue 09:47:44 PM 36.6367 -77.4194 216° Southwest 281 323 36,000  Level Washington Center
Tue 09:48:45 PM 36.5753 -77.4775 217° Southwest 281 323 36,000  Level Washington Center
Tue 09:49:46 PM 36.5139 -77.5328 216° Southwest 281 323 36,000  Level Washington Center
Tue 09:50:46 PM 36.4525 -77.5881 216° Southwest 281 323 36,000  Level Washington Center
Tue 09:51:44 PM 36.3953 -77.6433 218° Southwest 281 323 36,000  Level Washington Center
Tue 09:52:45 PM 36.3336 -77.6986 216° Southwest 281 323 36,000  Level Washington Center
Tue 09:53:46 PM 36.2722 -77.7536 216° Southwest 281 323 36,000  Level Washington Center
Tue 09:54:44 PM 36.2147 -77.8086 218° Southwest 281 323 36,000  Level Washington Center
Tue 09:55:45 PM 36.1533 -77.8633 216° Southwest 281 323 36,000  Level Washington Center
Tue 09:56:46 PM 36.0917 -77.9183 216° Southwest 281 323 36,000  Level Washington Center
Tue 09:57:44 PM 36.0344 -77.9706 216° Southwest 276 318 36,000  Level Washington Center
Tue 09:58:44 PM 35.9728 -78.0250 216° Southwest 276 318 36,000  Level Washington Center
Tue 09:59:44 PM 35.9133 -78.0772 215° Southwest 276 318 36,000  Level Washington Center
Tue 10:00:45 PM 35.8539 -78.1292 215° Southwest 276 318 36,000  Level Washington Center
Tue 10:01:46 PM 35.7942 -78.1836 216° Southwest 276 318 36,000  Level Washington Center
Tue 10:02:46 PM 35.7347 -78.2353 215° Southwest 271 312 36,000  Level Washington Center
Tue 10:03:44 PM 35.6750 -78.2869 215° Southwest 271 312 36,000  Level Washington Center
Tue 10:04:44 PM 35.6153 -78.3411 216° Southwest 271 312 36,000  Level Washington Center
Tue 10:05:44 PM 35.5536 -78.3978 217° Southwest 271 312 36,000  Level Washington Center
Tue 10:06:44 PM 35.4983 -78.4444 215° Southwest 276 318 36,000  Level Washington Center
Tue 10:07:45 PM 35.4319 -78.5058 217° Southwest 276 318 36,000  Level Washington Center
Tue 10:08:46 PM 35.3767 -78.5547 216° Southwest 276 318 36,000  Level Washington Center
Tue 10:09:44 PM 35.3128 -78.6083 214° Southwest 276 318 36,000  Level Washington Center
Tue 10:10:44 PM 35.2528 -78.6619 216° Southwest 276 318 36,000  Level Washington Center
Tue 10:11:45 PM 35.1911 -78.7156 215° Southwest 276 318 36,000  Level Washington Center
Tue 10:12:44 PM 35.1311 -78.7692 216° Southwest 276 318 36,000  Level Washington Center
Tue 10:14:54 PM 34.9972 -78.8839 215° Southwest 270 311 36,000  Level Jacksonville Center
Tue 10:15:54 PM 34.9364 -78.9372 216° Southwest 275 316 36,000  Level Jacksonville Center
Tue 10:16:54 PM 34.8753 -78.9908 216° Southwest 275 316 36,000  Level Jacksonville Center
Tue 10:17:54 PM 34.8125 -79.0442 215° Southwest 275 316 36,000  Level Jacksonville Center
Tue 10:18:54 PM 34.7514 -79.0975 216° Southwest 275 316 36,000  Level Jacksonville Center
Tue 10:19:53 PM 34.6906 -79.1506 216° Southwest 275 316 36,000  Level Jacksonville Center
Tue 10:20:53 PM 34.6272 -79.2014 213° Southwest 275 316 36,000  Level Jacksonville Center
Tue 10:21:54 PM 34.5533 -79.2422 204° Southwest 281 323 36,000  Level Jacksonville Center
Tue 10:22:53 PM 34.4817 -79.2881 208° Southwest 286 329 36,000  Level Jacksonville Center
Tue 10:23:53 PM 34.4078 -79.3264 203° Southwest 286 329 36,000  Level Jacksonville Center
Tue 10:24:54 PM 34.3358 -79.3647 204° Southwest 286 329 36,000  Level Jacksonville Center
Tue 10:25:54 PM 34.2661 -79.4053 206° Southwest 291 335 36,000  Level Jacksonville Center
Tue 10:26:54 PM 34.1981 -79.4406 203° Southwest 286 329 36,000  Level Jacksonville Center
Tue 10:27:53 PM 34.1242 -79.4811 204° Southwest 286 329 36,000  Level Jacksonville Center
Tue 10:28:54 PM 34.0522 -79.5214 205° Southwest 286 329 36,000  Level Jacksonville Center
Tue 10:29:53 PM 33.9803 -79.5592 204° Southwest 286 329 36,000  Level Jacksonville Center
Tue 10:30:54 PM 33.9061 -79.6047 207° Southwest 291 335 36,000  Level Jacksonville Center
Tue 10:31:53 PM 33.8342 -79.6422 203° Southwest 296 341 36,000  Level Jacksonville Center
Tue 10:32:54 PM 33.7600 -79.6825 204° Southwest 296 341 36,000  Level Jacksonville Center
Tue 10:33:54 PM 33.6881 -79.7225 205° Southwest 296 341 36,000  Level Jacksonville Center
Tue 10:34:53 PM 33.6139 -79.7628 204° Southwest 296 341 36,000  Level Jacksonville Center
Tue 10:35:53 PM 33.5400 -79.8050 205° Southwest 296 341 36,000  Level Jacksonville Center
Tue 10:36:53 PM 33.4678 -79.8425 203° Southwest 296 341 36,000  Level Jacksonville Center
Tue 10:37:53 PM 33.3956 -79.8822 205° Southwest 296 341 36,000  Level Jacksonville Center
Tue 10:38:54 PM 33.3217 -79.9244 206° Southwest 296 341 36,000  Level Jacksonville Center
Tue 10:39:54 PM 33.2472 -79.9642 204° Southwest 296 341 36,000  Level Jacksonville Center
Tue 10:40:53 PM 33.1753 -80.0014 203° Southwest 296 341 36,000  Level Jacksonville Center
Tue 10:41:53 PM 33.0989 -80.0386 202° Southwest 296 341 36,000  Level Jacksonville Center
Tue 10:42:53 PM 33.0247 -80.0831 207° Southwest 296 341 36,000  Level Jacksonville Center
Tue 10:43:53 PM 32.9422 -80.1303 206° Southwest 295 339 36,000  Level Jacksonville Center
Tue 10:44:53 PM 32.8658 -80.1697 203° Southwest 300 345 36,000  Level Jacksonville Center
Tue 10:45:53 PM 32.7914 -80.2089 204° Southwest 295 339 36,000  Level Jacksonville Center
Tue 10:46:54 PM 32.7194 -80.2506 206° Southwest 295 339 36,000  Level Jacksonville Center
Tue 10:47:53 PM 32.6450 -80.2897 204° Southwest 295 339 36,000  Level Jacksonville Center
Tue 10:48:53 PM 32.5706 -80.3289 204° Southwest 295 339 36,000  Level Jacksonville Center
Tue 10:49:53 PM 32.4942 -80.3706 205° Southwest 295 339 36,000  Level Jacksonville Center
Tue 10:50:53 PM 32.4197 -80.4094 204° Southwest 295 339 36,000  Level Jacksonville Center
Tue 10:51:53 PM 32.3456 -80.4508 205° Southwest 295 339 36,000  Level Jacksonville Center
Tue 10:52:54 PM 32.2711 -80.4897 204° Southwest 293 337 36,000  Level Jacksonville Center
Tue 10:53:54 PM 32.1944 -80.5286 203° Southwest 298 343 36,000  Level Jacksonville Center
Tue 10:54:54 PM 32.1286 -80.5669 206° Southwest 298 343 36,000  Level Jacksonville Center
Tue 10:55:53 PM 32.0458 -80.6083 203° Southwest 298 343 36,000  Level Jacksonville Center
Tue 10:56:53 PM 31.9714 -80.6492 205° Southwest 298 343 36,000  Level Jacksonville Center
Tue 10:57:53 PM 31.9031 -80.6828 203° Southwest 298 343 36,000  Level Jacksonville Center
Tue 10:58:54 PM 31.8203 -80.7264 204° Southwest 298 343 36,000  Level Jacksonville Center
Tue 10:59:53 PM 31.7478 -80.7672 206° Southwest 293 337 36,000  Level Jacksonville Center
Tue 11:00:53 PM 31.6775 -80.8006 202° Southwest 299 344 36,000  Level Jacksonville Center
Tue 11:01:53 PM 31.5967 -80.8461 206° Southwest 299 344 36,000  Level Jacksonville Center
Tue 11:02:53 PM 31.5222 -80.8844 204° Southwest 299 344 36,000  Level Jacksonville Center
Tue 11:03:53 PM 31.4436 -80.9250 204° Southwest 299 344 36,000  Level Jacksonville Center
Tue 11:04:53 PM 31.3689 -80.9631 204° Southwest 299 344 36,000  Level Jacksonville Center
Tue 11:05:53 PM 31.2903 -81.0036 204° Southwest 299 344 36,000  Level Jacksonville Center
Tue 11:06:53 PM 31.2156 -81.0439 205° Southwest 299 344 36,000  Level Jacksonville Center
Tue 11:07:54 PM 31.1389 -81.0794 202° Southwest 299 344 36,000  Level Jacksonville Center
Tue 11:08:54 PM 31.0622 -81.1222 206° Southwest 300 345 36,000  Level Jacksonville Center
Tue 11:09:53 PM 30.9856 -81.1600 203° Southwest 300 345 36,000  Level Jacksonville Center
Tue 11:10:54 PM 30.9108 -81.1975 203° Southwest 300 345 36,000  Level Jacksonville Center
Tue 11:11:54 PM 30.8361 -81.2378 205° Southwest 300 345 36,000  Level Jacksonville Center
Tue 11:12:53 PM 30.7594 -81.2753 203° Southwest 295 339 36,000  Level Jacksonville Center
Tue 11:13:53 PM 30.6847 -81.3153 205° Southwest 300 345 36,000  Level Jacksonville Center
Tue 11:14:54 PM 30.6081 -81.3528 203° Southwest 300 345 36,000  Level Jacksonville Center
Tue 11:15:54 PM 30.5353 -81.3900 204° Southwest 300 345 36,000  Level Jacksonville Center
Tue 11:16:53 PM 30.4586 -81.4297 204° Southwest 300 345 36,000  Level Jacksonville Center
Tue 11:17:53 PM 30.3817 -81.4669 203° Southwest 300 345 36,000  Level Jacksonville Center
Tue 11:18:53 PM 30.3069 -81.5042 203° Southwest 300 345 36,000  Level Jacksonville Center
Tue 11:19:53 PM 30.2322 -81.5439 205° Southwest 300 345 36,000  Level Jacksonville Center
Tue 11:20:53 PM 30.1575 -81.5808 203° Southwest 295 339 36,000  Level Jacksonville Center
Tue 11:21:53 PM 30.0806 -81.6181 203° Southwest 295 339 36,000  Level Jacksonville Center
Tue 11:22:53 PM 30.0225 -81.6500 205° Southwest 295 339 36,000  Level Jacksonville Center
Tue 11:23:53 PM 29.9414 -81.6917 204° Southwest 295 339 36,000  Level Jacksonville Center
Tue 11:24:53 PM 29.8667 -81.7286 203° Southwest 295 339 36,000  Level Jacksonville Center
Tue 11:25:54 PM 29.7958 -81.7653 204° Southwest 295 339 36,000  Level Jacksonville Center
Tue 11:26:53 PM 29.7233 -81.8019 204° Southwest 295 339 36,000  Level Jacksonville Center
Tue 11:27:53 PM 29.6483 -81.8386 203° Southwest 295 339 36,000  Level Jacksonville Center
Tue 11:28:53 PM 29.5756 -81.8731 202° Southwest 295 339 36,000  Level Jacksonville Center
Tue 11:29:54 PM 29.5050 -81.9119 206° Southwest 295 339 36,000 -50 Level Jacksonville Center
Tue 11:30:54 PM 29.4322 -81.9458 202° Southwest 295 339 35,900 -550 Descending Jacksonville Center
Tue 11:31:54 PM 29.3594 -81.9847 205° Southwest 295 339 34,900 -1,059 Descending Jacksonville Center
Tue 11:32:53 PM 29.2761 -82.0236 202° Southwest 307 353 33,800 -1,311 Descending Jacksonville Center
Tue 11:33:53 PM 29.1825 -82.0719 204° Southwest 323 372 32,300 -1,400 Descending Jacksonville Center
Tue 11:34:53 PM 29.0950 -82.1228 207° Southwest 341 392 31,000 -1,300 Descending Jacksonville Center
Tue 11:35:53 PM 29.0058 -82.1803 209° Southwest 354 407 29,700 -1,850 Descending Jacksonville Center
Tue 11:36:53 PM 28.9308 -82.2356 213° Southwest 367 422 27,300 -2,850 Descending Jacksonville Center
Tue 11:37:53 PM 28.8581 -82.2906 214° Southwest 349 402 24,000 -3,536 Descending Jacksonville Center
Tue 11:39:24 PM 28.7333 -82.3667 208° Southwest 297 342 18,400 -3,338 Descending Tampa TRACON
Tue 11:40:24 PM 28.6667 -82.4000 204° Southwest 278 320 15,600 -2,727 Descending Tampa TRACON
Tue 11:41:36 PM 28.5833 -82.4500 208° Southwest 288 331 12,400 -2,636 Descending Tampa TRACON
Tue 11:42:36 PM 28.5167 -82.5000 213° Southwest 291 335 9,800 -2,600 Descending Tampa TRACON
Tue 11:43:36 PM 28.4500 -82.5500 213° Southwest 268 308 7,200 -2,550 Descending Tampa TRACON
Tue 11:44:36 PM 28.4000 -82.6000 221° Southwest 261 300 4,700 -2,100 Descending Tampa TRACON
Tue 11:45:36 PM 28.3333 -82.6500 213° Southwest 244 281 3,000 -1,100 Descending Tampa TRACON
Tue 11:46:36 PM 28.2833 -82.6667 196° South 197 227 2,500 -250 Descending Tampa TRACON
Tue 11:47:36 PM 28.2333 -82.6833 196° South 196 226 2,500  Level Tampa TRACON
Tue 11:48:42 PM 28.1833 -82.7167 210° Southwest 198 228 2,500  Level Tampa TRACON
Tue 11:49:42 PM 28.1167 -82.7167 180° South 189 217 2,500  Level Tampa TRACON
Tue 11:50:42 PM 28.0667 -82.7167 180° South 182 209 2,500 -316 Level Tampa TRACON
Tue 11:51:36 PM 28.0333 -82.7167 180° South 174 200 1,900 -783 Descending Tampa TRACON
Tue 11:52:37 PM 27.9833 -82.7000 164° South 161 185 1,000 -885 Descending Tampa TRACON

Login

Don't have an account? Register now (free) for customized features, flight alerts, and more!